Havana, Arkansas
Current Conditions -  °F | °C
As of 11:53 PM on Saturday 22 Nov 2014 (Local Time) from KRUE Reporting Station
Clear Clear  
Wind Chill: 56°   Ceiling: Unl
Heat Index: 56°   Visibility: 10mi
Dew Point: 52°   Wind: 6mph
Humidity: 87%   Direction: NA
Pressure: 29.81"   Gusts: NA
Location:  35.11°N, 93.53°W
Report Text: KRUE 230553Z AUTO VRB05KT 10SM CLR 13/11 A2981 RMK AO2 SLP089 T01330111 10133 20106 401500072 56035
Loading
Personal Weather Stations






























Interactive Weather Map New forecast layout! Learn more

10-Day Weather Forecast

Advertisements
Track Severe Weather on mobile